• Join FlightAware (Why Join?)
  • Login
  • US Flag 
05:47PM EDT


 

Airport Tracker/Info


-or-


 

Live Flight TrackerFlight Track Log ✈ N105LU ✈ 25-Jul-2014 ✈ KMIA - KMTH

Flight Track Log - Related Links

Times and Time Zones

All times are in EDT time to prevent confusion due to time zone crossing. See the N105LU flight status page for this flight to view local times or setup timezone preferences in your user account.

Time Position Orientation Groundspeed Altitude Reporting Facility
EDT Latitude Longitude Course Direction KTS MPH feet Rate Location/Type
10:35AM 25.9122 -80.1047 185° South 116 133 1,100  Level Miami Center
10:36AM 25.8872 -80.1072 185° South 124 143 1,100  Level Miami Center
10:36AM 25.8700 -80.1086 184° South 125 144 1,100  Level Miami Center
10:37AM 25.8531 -80.1061 172° South 123 142 1,100 300 Level Miami Center
10:37AM 25.8389 -80.1061 180° South 118 136 1,400 480 Climbing Miami Center
10:38AM 25.8231 -80.1056 178° South 112 129 1,600 240 Climbing Miami Center
10:38AM 25.8053 -80.1058 181° South 110 127 1,700  Climbing Miami Center
10:39AM 25.7908 -80.1083 189° South 113 130 1,600 -120 Descending Miami Center
10:39AM 25.7714 -80.1103 185° South 119 137 1,600  Level Miami Center
10:40AM 25.7519 -80.1144 191° South 115 132 1,600  Level Miami Center
10:40AM 25.7417 -80.1197 205° Southwest 121 139 1,600  Level Miami Center
10:41AM 25.7222 -80.1297 205° Southwest 116 133 1,600  Level Miami Center
10:41AM 25.7114 -80.1358 207° Southwest 117 135 1,600 60 Level Miami Center
10:42AM 25.6914 -80.1428 197° South 117 135 1,700 60 Climbing Miami Center
10:42AM 25.6769 -80.1469 195° South 116 133 1,700 60 Level Miami Center
10:43AM 25.6583 -80.1511 191° South 118 136 1,800 240 Climbing Miami Center
10:43AM 25.6450 -80.1561 199° South 119 137 2,000 240 Climbing Miami Center
10:44AM 25.6286 -80.1611 195° South 112 129 2,100 60 Climbing Miami Center
10:44AM 25.6108 -80.1697 204° Southwest 114 131 2,100  Level Miami Center
10:45AM 25.5931 -80.1764 199° South 119 137 2,100  Level Miami Center
10:46AM 25.5592 -80.1914 202° Southwest 122 140 2,100  Level Miami Center
10:47AM 25.5294 -80.2039 201° Southwest 121 139 2,200  Climbing Miami Center
10:48AM 25.4978 -80.2214 207° Southwest 121 139 2,100 -60 Descending Miami Center
10:49AM 25.4678 -80.2386 207° Southwest 120 138 2,100  Level Miami Center
10:50AM 25.4400 -80.2558 209° Southwest 118 136 2,100  Level Miami Center
10:51AM 25.4103 -80.2756 211° Southwest 119 137 2,100  Level Miami Center
10:51AM 25.4114 -80.2750 24° Northeast 119 137 2,100  Level Miami Center
10:52AM 25.3825 -80.2931 209° Southwest 119 137 2,100  Level Miami Center
10:52AM 25.3761 -80.2964 205° Southwest 119 137 2,100  Level Miami Center
10:53AM 25.3506 -80.3125 210° Southwest 118 136 2,100  Level Miami Center
10:53AM 25.3475 -80.3147 213° Southwest 119 137 2,100  Level Miami Center
10:54AM 25.3250 -80.3300 212° Southwest 117 135 2,100  Level Miami Center
10:54AM 25.3189 -80.3328 202° Southwest 119 137 2,100  Level Miami Center
10:55AM 25.2931 -80.3469 206° Southwest 120 138 2,100  Level Miami Center
10:55AM 25.2900 -80.3494 216° Southwest 119 137 2,100  Level Miami Center
10:56AM 25.2653 -80.3644 209° Southwest 122 140 2,100  Level Miami Center
10:57AM 25.2597 -80.3669 202° Southwest 120 138 2,100  Level Miami Center
10:57AM 25.2333 -80.3817 207° Southwest 118 136 2,100  Level Miami Center
10:58AM 25.2308 -80.3842 222° Southwest 120 138 2,100  Level Miami Center
10:58AM 25.2056 -80.3989 208° Southwest 117 135 2,100  Level Miami Center
10:59AM 25.1953 -80.4042 205° Southwest 119 137 2,100  Level Miami Center
10:59AM 25.1758 -80.4161 209° Southwest 119 137 2,100  Level Miami Center
11:00AM 25.1661 -80.4214 206° Southwest 119 137 2,100 480 Level Miami Center
11:00AM 25.1500 -80.4358 219° Southwest 108 124 2,600 540 Climbing Miami Center
11:01AM 25.1425 -80.4397 205° Southwest 114 131 2,700 480 Climbing Miami Center
11:01AM 25.1244 -80.4486 204° Southwest 99 114 3,100 540 Climbing Miami Center
11:02AM 25.1183 -80.4558 227° Southwest 106 122 3,300 240 Climbing Miami Center
11:03AM 25.0933 -80.4739 213° Southwest 105 121 3,500 120 Climbing Miami Center
11:04AM 25.0606 -80.4856 198° South 118 136 3,600  Climbing Miami Center
11:05AM 25.0286 -80.5133 218° Southwest 119 137 3,600  Level Miami Center
11:06AM 25.0042 -80.5397 224° Southwest 120 138 3,700  Climbing Miami Center
11:07AM 24.9806 -80.5664 226° Southwest 120 138 3,600  Descending Miami Center
11:08AM 24.9589 -80.5944 230° Southwest 120 138 3,700  Climbing Miami Center
11:09AM 24.9408 -80.6250 237° Southwest 120 138 3,700  Level Miami Center
11:10AM 24.9192 -80.6639 238° Southwest 121 139 3,700  Level Miami Center
11:11AM 24.8958 -80.6917 227° Southwest 121 139 3,700 -60 Level Miami Center
11:12AM 24.8744 -80.7175 228° Southwest 121 139 3,600 -60 Descending Miami Center
11:13AM 24.8550 -80.7497 236° Southwest 123 142 3,600  Level Miami Center
11:14AM 24.8333 -80.7856 236° Southwest 122 140 3,600  Level Miami Center
11:15AM 24.8178 -80.8200 244° Southwest 122 140 3,600  Level Miami Center
11:16AM 24.8014 -80.8539 242° Southwest 123 142 3,600 -240 Level Miami Center
11:17AM 24.7883 -80.8883 247° West 123 142 3,100 -480 Descending Miami Center
11:18AM 24.7758 -80.9203 247° West 121 139 2,700 -60 Descending Miami Center
11:20AM 24.7581 -80.9592 243° Southwest  Level FlightAware Approximate
11:27AM 24.7167 -81.0500 234° Southwest  Level FlightAware Approximate
11:28AM 24.7262 -81.0514 353° North  Level Estimated
11:29AM 24.7262 -81.0514 234° Southwest  Level Estimated
11:30AM 24.7262 -81.0514 North  Level Estimated
11:31AM 24.7262 -81.0514 234° Southwest  Level Estimated
11:32AM 24.7262 -81.0514 North  Level Estimated
11:33AM 24.7262 -81.0514 234° Southwest  Level Estimated
11:34AM 24.7262 -81.0514 North  Level Estimated
11:35AM 24.7262 -81.0514 234° Southwest  Level Estimated
11:36AM 24.7262 -81.0514 North  Level Estimated
11:37AM 24.7262 -81.0514 234° Southwest  Level Estimated
12:32PM 25.3164 -80.2533 234° Southwest 126 145 1,700  Level Miami Center
12:33PM 25.3272 -80.2472 27° Northeast 120 138 1,700  Level Miami Center
12:34PM 25.3617 -80.2317 22° Northeast 127 146 1,700  Level Miami Center
12:35PM 25.3983 -80.2183 18° North 128 147 1,700  Level Miami Center
12:36PM 25.4283 -80.2044 23° Northeast 126 145 1,700  Level Miami Center
12:37PM 25.4606 -80.1931 18° North 125 144 1,700  Level Miami Center
12:38PM 25.4947 -80.1839 14° North 129 148 1,700  Level Miami Center
12:39PM 25.5306 -80.1775 North 126 145 1,700  Level Miami Center
12:40PM 25.5689 -80.1689 11° North 122 140 1,800  Climbing Miami Center
12:41PM 25.6006 -80.1644 North 124 143 1,800  Level Miami Center
12:42PM 25.6325 -80.1553 15° North 122 140 1,800 -120 Level Miami Center
12:43PM 25.6667 -80.1464 13° North 121 139 1,600 -180 Descending Miami Center
12:44PM 25.7008 -80.1372 14° North 124 143 1,500 -120 Descending Miami Center
12:45PM 25.7350 -80.1261 16° North 126 145 1,400  Descending Miami Center
12:46PM 25.7708 -80.1194 10° North 124 143 1,500  Climbing Miami Center
12:47PM 25.8050 -80.1128 10° North 130 150 1,500 -60 Level Miami Center
12:48PM 25.8389 -80.1039 13° North 127 146 1,400  Descending Miami Center
12:49PM 25.8728 -80.0972 10° North 124 143 1,500 60 Climbing Miami Center
12:50PM 25.9031 -80.0833 22° Northeast 115 132 1,600 240 Climbing Miami Center
12:51PM 25.9347 -80.0786 North 121 139 2,000 -180 Climbing Miami Center
12:52PM 25.9700 -80.0858 350° North 122 140 1,300 -660 Descending Miami Center
12:53PM 26.0025 -80.1022 336° Northwest 131 151 600 -360 Descending Miami Center
12:54PM 26.0356 -80.1072 352° North 126 145 600  Level Miami Center
12:55PM 26.0717 -80.1006 North 120 138 700  Climbing Miami Center
12:56PM 26.1053 -80.0986 North 121 139 600 -60 Descending Miami Center
12:57PM 26.1369 -80.0964 North 122 140 600  Level Miami Center
12:58PM 26.1706 -80.0942 North 123 142 600  Level Miami Center
12:59PM 26.2064 -80.0900 North 143 165 600 120 Level Miami Center
01:00PM 26.2383 -80.0808 14° North 118 136 900 240 Climbing Miami Center
01:01PM 26.2739 -80.0789 North 125 144 1,100 120 Climbing Miami Center
01:02PM 26.3067 -80.0928 339° North 125 144 1,200 -180 Climbing Miami Center
01:03PM 26.3350 -80.1089 333° Northwest 105 121 800 -300 Descending Miami Center
01:04PM 26.3572 -80.1222 332° Northwest 88 101 700 -120 Descending Miami Center